Time;durP1;ratioP1;P1;durP2;ratioP2;P2;SDS_P1;SDS_P2;PMS_P1;PMS_P2;Temp;Humidity;BMP_temperature;BMP_pressure;BME280_temperature;BME280_humidity;BME280_pressure;Samples;Min_cycle;Max_cycle;Signal;HPM_P1;HPM_P2
2023/07/13 00:00:09;;;;;;;0.40;0.40;;;;;;;21.31;56.73;99436.88;337477;28;5301;-69
2023/07/13 00:00:22;;;;;;;0.40;0.30;;;;;;;21.33;56.38;99440.22;332862;28;18332;-70
2023/07/13 00:00:36;;;;;;;0.30;0.30;;;;;;;21.36;56.58;99439.97;335400;28;17146;-69
2023/07/13 00:00:48;;;;;;;0.30;0.30;;;;;;;21.37;56.31;99440.78;337144;28;5031;-69
2023/07/13 00:01:00;;;;;;;0.40;0.30;;;;;;;21.38;56.58;99437.19;331913;28;10803;-69
2023/07/13 00:01:14;;;;;;;0.30;0.25;;;;;;;21.39;56.65;99434.44;338738;28;5374;-69
2023/07/13 00:01:26;;;;;;;0.40;0.30;;;;;;;21.40;56.08;99446.69;332985;28;10916;-69
2023/07/13 00:01:38;;;;;;;0.30;0.30;;;;;;;21.39;56.40;99439.72;337147;28;4590;-68
2023/07/13 00:01:51;;;;;;;0.30;0.30;;;;;;;21.38;56.33;99442.50;333127;28;5190;-69
2023/07/13 00:02:03;;;;;;;0.30;0.30;;;;;;;21.38;56.57;99437.19;337597;28;4572;-70
2023/07/13 00:02:15;;;;;;;0.30;0.30;;;;;;;21.38;56.70;99448.59;334814;28;10318;-70
2023/07/13 00:02:27;;;;;;;0.43;0.30;;;;;;;21.38;56.56;99442.50;338412;28;4607;-69
2023/07/13 00:02:39;;;;;;;0.50;0.30;;;;;;;21.34;56.69;99441.88;338035;28;5320;-70
2023/07/13 00:02:53;;;;;;;0.40;0.25;;;;;;;21.35;56.65;99433.84;334628;28;17989;-70
2023/07/13 00:03:06;;;;;;;0.40;0.30;;;;;;;21.34;56.77;99440.06;337586;28;13551;-69
2023/07/13 00:03:19;;;;;;;0.90;0.40;;;;;;;21.34;56.90;99444.53;333520;28;18026;-69
2023/07/13 00:03:34;;;;;;;0.70;0.30;;;;;;;21.38;57.04;99448.59;335214;28;18291;-70
2023/07/13 00:03:47;;;;;;;0.25;0.25;;;;;;;21.39;56.98;99450.31;333999;28;18040;-70
2023/07/13 00:03:59;;;;;;;0.38;0.32;;;;;;;21.40;56.55;99445.84;337832;28;5795;-69
2023/07/13 00:04:11;;;;;;;0.40;0.40;;;;;;;21.41;56.66;99445.72;334929;28;12073;-69
2023/07/13 00:04:27;;;;;;;0.40;0.40;;;;;;;21.41;56.57;99452.78;338369;28;4676;-69
2023/07/13 00:04:41;;;;;;;0.30;0.30;;;;;;;21.39;56.63;99445.00;332886;28;17859;-69
2023/07/13 00:04:53;;;;;;;0.40;0.30;;;;;;;21.39;56.71;99452.94;335318;28;4561;-69
2023/07/13 00:05:06;;;;;;;0.32;0.30;;;;;;;21.39;56.67;99447.66;336825;28;18129;-69
2023/07/13 00:05:22;;;;;;;0.40;0.40;;;;;;;21.39;56.29;99439.72;331197;28;17932;-69
2023/07/13 00:05:34;;;;;;;0.40;0.40;;;;;;;21.41;56.67;99443.09;335717;28;18020;-69
2023/07/13 00:05:47;;;;;;;0.30;0.30;;;;;;;21.43;56.09;99446.47;337694;28;5324;-69
2023/07/13 00:06:01;;;;;;;0.30;0.30;;;;;;;21.42;56.57;99439.47;330510;28;17840;-68
2023/07/13 00:06:13;;;;;;;0.28;0.28;;;;;;;21.42;56.46;99443.91;329104;28;18537;-69
2023/07/13 00:06:32;;;;;;;0.17;0.17;;;;;;;21.42;56.58;99443.91;336520;28;5432;-68
2023/07/13 00:06:45;;;;;;;0.20;0.20;;;;;;;21.42;56.38;99443.91;334001;28;18650;-68
2023/07/13 00:06:57;;;;;;;0.30;0.30;;;;;;;21.40;56.63;99441.38;337043;28;11503;-68
2023/07/13 00:07:09;;;;;;;0.40;0.30;;;;;;;21.39;56.73;99439.72;334879;28;18115;-68
2023/07/13 00:07:21;;;;;;;0.30;0.30;;;;;;;21.40;56.18;99438.75;336913;28;4693;-69
2023/07/13 00:07:34;;;;;;;0.20;0.20;;;;;;;21.40;56.58;99441.38;335943;28;18024;-68
2023/07/13 00:07:48;;;;;;;0.20;0.20;;;;;;;21.39;56.34;99438.88;338143;28;5328;-68
2023/07/13 00:08:00;;;;;;;0.20;0.20;;;;;;;21.38;56.50;99442.50;334781;28;18451;-68
2023/07/13 00:08:12;;;;;;;0.30;0.30;;;;;;;21.38;56.49;99442.50;337474;28;5437;-68
2023/07/13 00:08:24;;;;;;;0.25;0.20;;;;;;;21.38;56.23;99442.50;334849;28;18039;-69
2023/07/13 00:08:36;;;;;;;0.32;0.30;;;;;;;21.25;56.30;99445.25;335963;28;5522;-68
2023/07/13 00:08:49;;;;;;;0.32;0.32;;;;;;;21.30;56.48;99440.44;331972;28;4698;-70
2023/07/13 00:09:01;;;;;;;0.30;0.30;;;;;;;21.29;56.56;99439.63;336453;28;18603;-69
2023/07/13 00:09:15;;;;;;;0.20;0.20;;;;;;;21.29;56.64;99433.50;337121;28;11905;-70
2023/07/13 00:09:27;;;;;;;1.33;0.30;;;;;;;21.26;56.60;99442.50;333669;28;18374;-70
2023/07/13 00:09:40;;;;;;;1.42;0.30;;;;;;;21.26;56.84;99433.75;331942;28;13306;-71
2023/07/13 00:09:53;;;;;;;1.30;0.30;;;;;;;21.26;56.67;99437.22;337620;28;4669;-70
2023/07/13 00:10:06;;;;;;;0.60;0.35;;;;;;;21.25;56.57;99432.03;334374;28;16292;-70
2023/07/13 00:10:19;;;;;;;0.38;0.30;;;;;;;21.26;56.59;99444.31;338288;28;4653;-69
2023/07/13 00:10:31;;;;;;;0.30;0.30;;;;;;;21.28;56.83;99435.28;337277;28;18342;-68
2023/07/13 00:10:45;;;;;;;0.30;0.30;;;;;;;21.25;56.89;99443.47;339666;28;5267;-69
2023/07/13 00:10:57;;;;;;;0.30;0.30;;;;;;;21.26;56.78;99433.75;337288;28;18394;-70
2023/07/13 00:11:10;;;;;;;0.30;0.30;;;;;;;21.26;56.66;99444.31;338871;28;4685;-69
2023/07/13 00:11:22;;;;;;;0.38;0.38;;;;;;;21.26;56.73;99439.03;336559;28;18921;-69
2023/07/13 00:11:34;;;;;;;0.30;0.30;;;;;;;21.26;56.50;99433.75;340862;28;4496;-69
2023/07/13 00:11:51;;;;;;;0.32;0.20;;;;;;;21.27;56.82;99440.69;341302;28;4708;-68
2023/07/13 00:12:03;;;;;;;0.40;0.20;;;;;;;21.26;56.96;99433.75;337186;28;17563;-69
2023/07/13 00:12:28;;;;;;;0.30;0.22;;;;;;;21.27;56.68;99432.75;336282;28;4653;-68
2023/07/13 00:12:40;;;;;;;0.40;0.40;;;;;;;21.25;57.04;99434.69;334756;28;17327;-69
2023/07/13 00:12:55;;;;;;;0.63;0.40;;;;;;;21.25;56.99;99435.53;334520;28;18523;-68
2023/07/13 00:13:08;;;;;;;0.50;0.20;;;;;;;21.27;56.88;99430.13;336980;28;4515;-68
2023/07/13 00:13:20;;;;;;;0.20;0.20;;;;;;;21.26;56.64;99429.28;334073;28;18060;-68
2023/07/13 00:13:32;;;;;;;0.40;0.40;;;;;;;21.25;56.61;99432.03;336236;28;5556;-68
2023/07/13 00:13:44;;;;;;;0.40;0.40;;;;;;;21.23;56.94;99428.69;335460;28;19522;-68
2023/07/13 00:13:56;;;;;;;0.45;0.30;;;;;;;21.22;56.86;99427.03;336982;28;5359;-68
2023/07/13 00:14:09;;;;;;;0.50;0.30;;;;;;;21.22;56.86;99441.06;331536;28;17689;-68
2023/07/13 00:14:22;;;;;;;0.43;0.40;;;;;;;21.21;56.86;99425.31;337361;28;4576;-69
2023/07/13 00:14:34;;;;;;;0.40;0.35;;;;;;;21.19;57.11;99435.19;330536;28;18873;-69
2023/07/13 00:14:46;;;;;;;0.30;0.22;;;;;;;21.10;57.42;99440.25;337987;28;4535;-68
2023/07/13 00:15:01;;;;;;;0.43;0.30;;;;;;;21.06;57.49;99433.53;337047;28;11727;-68
2023/07/13 00:15:22;;;;;;;0.70;0.43;;;;;;;21.02;57.57;99432.09;337137;28;18010;-69
2023/07/13 00:15:35;;;;;;;0.52;0.40;;;;;;;21.06;57.13;99428.22;335721;28;16682;-68
2023/07/13 00:15:47;;;;;;;1.65;0.40;;;;;;;21.07;57.32;99429.09;336641;28;4566;-69
2023/07/13 00:16:00;;;;;;;1.67;0.38;;;;;;;21.09;57.50;99429.81;334283;28;17503;-69
2023/07/13 00:16:13;;;;;;;0.40;0.40;;;;;;;21.09;57.65;99430.66;334891;28;12410;-69
2023/07/13 00:16:26;;;;;;;0.50;0.47;;;;;;;21.10;57.35;99432.31;337391;28;4583;-68
2023/07/13 00:16:43;;;;;;;0.25;0.25;;;;;;;21.12;57.11;99426.91;335900;28;5376;-69
2023/07/13 00:16:55;;;;;;;0.20;0.20;;;;;;;21.14;57.30;99431.09;335585;28;17853;-69
2023/07/13 00:17:07;;;;;;;0.35;0.28;;;;;;;21.17;57.30;99434.47;337836;28;5825;-68
2023/07/13 00:17:20;;;;;;;0.40;0.38;;;;;;;21.19;57.27;99432.53;335133;28;18165;-69
2023/07/13 00:17:33;;;;;;;2.00;0.40;;;;;;;21.19;57.28;99433.41;331599;28;4855;-68
2023/07/13 00:17:45;;;;;;;2.00;0.40;;;;;;;21.18;57.34;99436.16;334270;28;18212;-69
2023/07/13 00:17:57;;;;;;;0.30;0.30;;;;;;;21.20;57.21;99434.22;335666;28;5261;-68
2023/07/13 00:18:09;;;;;;;0.20;0.20;;;;;;;21.21;57.44;99427.97;334275;28;5306;-69
2023/07/13 00:18:21;;;;;;;0.20;0.20;;;;;;;21.22;57.50;99430.50;337573;28;4522;-69
2023/07/13 00:18:34;;;;;;;0.30;0.30;;;;;;;21.23;57.57;99428.69;336937;28;5193;-69
2023/07/13 00:18:46;;;;;;;0.30;0.30;;;;;;;21.25;57.74;99437.31;334018;28;15945;-68
2023/07/13 00:19:00;;;;;;;0.40;0.40;;;;;;;21.21;58.01;99434.13;337494;28;4494;-69
2023/07/13 00:19:13;;;;;;;0.40;0.40;;;;;;;21.21;58.11;99430.59;334822;28;18005;-69
2023/07/13 00:19:25;;;;;;;0.40;0.40;;;;;;;21.21;58.15;99435.91;337871;28;6271;-68
2023/07/13 00:19:37;;;;;;;0.65;0.50;;;;;;;21.21;58.05;99433.25;334843;28;18833;-68
2023/07/13 00:19:49;;;;;;;0.45;0.45;;;;;;;21.22;57.80;99432.31;337878;28;4678;-68
2023/07/13 00:20:01;;;;;;;0.30;0.30;;;;;;;21.23;57.82;99434.84;335698;28;17863;-69
2023/07/13 00:20:13;;;;;;;0.30;0.30;;;;;;;21.23;57.80;99437.47;337195;28;5220;-68
2023/07/13 00:20:25;;;;;;;0.40;0.40;;;;;;;21.23;58.09;99440.13;329479;28;4743;-69
2023/07/13 00:20:37;;;;;;;0.32;0.32;;;;;;;21.22;58.52;99433.13;334831;28;5024;-68
2023/07/13 00:20:50;;;;;;;0.35;0.35;;;;;;;21.21;58.10;99441.19;335475;28;4644;-69
2023/07/13 00:21:04;;;;;;;0.40;0.40;;;;;;;21.22;57.78;99440.22;333511;28;14977;-68
2023/07/13 00:21:16;;;;;;;0.40;0.40;;;;;;;21.22;58.02;99441.06;333540;28;19181;-69
2023/07/13 00:21:29;;;;;;;0.40;0.40;;;;;;;21.24;58.10;99446.25;335886;28;4602;-68
2023/07/13 00:21:41;;;;;;;0.32;0.32;;;;;;;21.23;57.95;99444.53;337051;28;17877;-68
2023/07/13 00:21:55;;;;;;;0.30;0.30;;;;;;;21.24;58.06;99441.78;334742;28;17455;-69
2023/07/13 00:22:07;;;;;;;0.70;0.40;;;;;;;21.23;58.08;99440.13;333224;28;17400;-69
2023/07/13 00:22:20;;;;;;;0.50;0.38;;;;;;;21.24;57.70;99440.94;337899;28;4780;-68
2023/07/13 00:22:32;;;;;;;0.25;0.25;;;;;;;21.23;58.52;99439.25;334897;28;18179;-68
2023/07/13 00:22:44;;;;;;;0.20;0.20;;;;;;;21.23;58.42;99439.25;337201;28;5120;-69
2023/07/13 00:22:56;;;;;;;0.28;0.28;;;;;;;21.22;58.41;99440.22;333991;28;4616;-69
2023/07/13 00:23:09;;;;;;;0.30;0.30;;;;;;;21.23;57.86;99439.25;336985;28;4701;-68
2023/07/13 00:23:21;;;;;;;0.55;0.30;;;;;;;21.22;57.73;99438.41;338148;28;4663;-68
2023/07/13 00:23:35;;;;;;;0.60;0.30;;;;;;;21.22;57.69;99445.53;330791;28;18125;-69
2023/07/13 00:23:48;;;;;;;0.40;0.38;;;;;;;21.23;57.37;99444.53;337506;28;4693;-68
2023/07/13 00:24:01;;;;;;;0.30;0.30;;;;;;;21.22;57.56;99442.88;334645;28;17824;-68
2023/07/13 00:24:15;;;;;;;0.30;0.30;;;;;;;21.23;57.15;99449.81;333095;28;16048;-69
2023/07/13 00:24:28;;;;;;;0.20;0.20;;;;;;;21.23;57.11;99439.25;334024;28;10770;-68
2023/07/13 00:24:41;;;;;;;0.22;0.22;;;;;;;21.20;57.26;99439.53;336748;28;4494;-69
2023/07/13 00:24:56;;;;;;;0.28;0.25;;;;;;;21.20;57.28;99439.53;334159;28;11153;-69
2023/07/13 00:25:11;;;;;;;0.90;0.30;;;;;;;21.20;57.33;99445.63;334703;28;16065;-69
2023/07/13 00:25:24;;;;;;;1.23;0.40;;;;;;;21.18;57.12;99442.28;332819;28;17010;-68
2023/07/13 00:25:36;;;;;;;0.70;0.40;;;;;;;21.18;57.34;99442.28;337393;28;5232;-68
2023/07/13 00:25:50;;;;;;;0.35;0.35;;;;;;;21.18;57.07;99441.44;334306;28;18382;-69
2023/07/13 00:26:04;;;;;;;0.30;0.30;;;;;;;21.17;57.32;99437.09;333427;28;5305;-69
2023/07/13 00:26:17;;;;;;;0.20;0.20;;;;;;;21.19;57.51;99437.81;336648;28;18340;-69
2023/07/13 00:26:29;;;;;;;0.20;0.20;;;;;;;21.17;57.13;99437.97;333839;28;19256;-69
2023/07/13 00:26:44;;;;;;;0.28;0.20;;;;;;;21.15;57.22;99432.81;337005;28;4550;-68
2023/07/13 00:26:56;;;;;;;0.20;0.20;;;;;;;21.14;57.90;99431.09;335383;28;17875;-68
2023/07/13 00:27:09;;;;;;;0.28;0.28;;;;;;;21.15;58.29;99437.25;335068;28;12891;-69
2023/07/13 00:27:21;;;;;;;0.30;0.30;;;;;;;21.14;58.21;99436.38;335959;28;18488;-69
2023/07/13 00:27:33;;;;;;;0.47;0.47;;;;;;;21.13;58.04;99429.44;335239;28;13098;-69
2023/07/13 00:27:48;;;;;;;0.52;0.43;;;;;;;21.15;57.98;99427.50;337783;28;4664;-69
2023/07/13 00:28:00;;;;;;;0.43;0.40;;;;;;;21.15;57.94;99429.31;333802;28;18046;-68
2023/07/13 00:28:13;;;;;;;0.30;0.30;;;;;;;21.17;57.70;99430.03;336139;28;4977;-68
2023/07/13 00:28:25;;;;;;;0.30;0.30;;;;;;;21.18;57.66;99430.88;334576;28;16923;-69
2023/07/13 00:28:36;;;;;;;0.28;0.28;;;;;;;21.20;57.22;99434.22;336637;28;4751;-68
2023/07/13 00:28:49;;;;;;;0.25;0.25;;;;;;;21.19;56.99;99428.13;331120;28;16446;-69
2023/07/13 00:29:01;;;;;;;0.35;0.30;;;;;;;21.21;57.24;99427.97;336820;28;5359;-68
2023/07/13 00:29:13;;;;;;;0.60;0.30;;;;;;;21.20;57.30;99418.38;335086;28;12162;-69
2023/07/13 00:29:26;;;;;;;0.60;0.30;;;;;;;21.19;57.42;99427.25;330327;28;18250;-69
2023/07/13 00:29:39;;;;;;;0.40;0.40;;;;;;;21.16;57.54;99428.34;338640;28;4635;-69
2023/07/13 00:29:51;;;;;;;0.40;0.40;;;;;;;21.15;57.84;99427.50;334488;28;18043;-69
2023/07/13 00:30:05;;;;;;;0.50;0.50;;;;;;;21.11;58.36;99426.06;335772;28;4565;-69
2023/07/13 00:30:17;;;;;;;0.40;0.30;;;;;;;21.12;57.81;99433.03;335020;28;16879;-69
2023/07/13 00:30:29;;;;;;;0.30;0.30;;;;;;;21.15;57.69;99424.88;333908;28;12822;-70
2023/07/13 00:30:41;;;;;;;0.20;0.20;;;;;;;21.15;57.60;99427.50;337671;28;4540;-69
2023/07/13 00:30:55;;;;;;;0.30;0.30;;;;;;;21.17;57.92;99419.47;334742;28;17607;-69
2023/07/13 00:31:08;;;;;;;0.40;0.40;;;;;;;21.17;57.85;99422.13;333755;28;4697;-70
2023/07/13 00:31:21;;;;;;;0.38;0.38;;;;;;;21.18;58.06;99421.13;334534;28;17889;-70
2023/07/13 00:31:33;;;;;;;0.52;0.25;;;;;;;21.18;57.85;99415.84;337900;28;4512;-69
2023/07/13 00:31:46;;;;;;;0.60;0.30;;;;;;;21.20;57.81;99421.00;335605;28;18313;-69
2023/07/13 00:31:58;;;;;;;0.57;0.28;;;;;;;21.23;57.27;99423.41;336748;28;4781;-68
2023/07/13 00:32:11;;;;;;;0.22;0.20;;;;;;;21.21;57.18;99435.91;337168;28;16184;-68
2023/07/13 00:32:27;;;;;;;0.25;0.20;;;;;;;21.18;57.08;99425.59;334794;28;17830;-69
2023/07/13 00:32:39;;;;;;;0.30;0.30;;;;;;;21.13;57.17;99432.09;334157;28;18080;-68
2023/07/13 00:32:51;;;;;;;0.30;0.30;;;;;;;21.11;57.13;99426.06;331916;28;16087;-69
2023/07/13 00:33:20;;;;;;;0.20;0.20;;;;;;;21.04;57.10;99422.22;334364;28;18128;-69
2023/07/13 00:33:33;;;;;;;0.30;0.30;;;;;;;21.05;57.49;99425.75;334243;28;18574;-69
2023/07/13 00:33:45;;;;;;;0.43;0.43;;;;;;;21.04;57.17;99429.31;335850;28;4673;-68
2023/07/13 00:33:57;;;;;;;0.40;0.40;;;;;;;21.02;57.29;99429.44;330129;28;17695;-69
2023/07/13 00:34:09;;;;;;;0.30;0.30;;;;;;;21.01;57.22;99425.13;337437;28;5310;-68
2023/07/13 00:34:21;;;;;;;0.30;0.30;;;;;;;21.01;57.23;99422.50;335495;28;11881;-69
2023/07/13 00:34:33;;;;;;;0.30;0.30;;;;;;;21.02;57.53;99423.31;335685;28;6093;-68
2023/07/13 00:34:45;;;;;;;0.25;0.25;;;;;;;21.00;57.26;99423.44;338063;28;4781;-68
2023/07/13 00:35:00;;;;;;;0.65;0.40;;;;;;;20.96;57.73;99427.28;334622;28;17082;-69
2023/07/13 00:35:14;;;;;;;0.50;0.30;;;;;;;20.97;57.67;99429.00;334681;28;18223;-69
2023/07/13 00:35:26;;;;;;;0.20;0.20;;;;;;;20.97;57.39;99425.47;334370;28;4531;-68
2023/07/13 00:35:39;;;;;;;0.30;0.30;;;;;;;20.97;57.72;99430.75;338904;28;5130;-68
2023/07/13 00:35:51;;;;;;;0.40;0.40;;;;;;;20.94;57.59;99429.22;333518;28;11357;-70
2023/07/13 00:36:04;;;;;;;0.30;0.30;;;;;;;20.91;57.73;99426.84;337395;28;5670;-69
2023/07/13 00:36:16;;;;;;;0.25;0.22;;;;;;;20.92;58.13;99431.13;337763;28;5134;-70
2023/07/13 00:36:30;;;;;;;0.30;0.30;;;;;;;20.93;57.56;99422.28;334982;28;18404;-69
2023/07/13 00:36:42;;;;;;;0.40;0.38;;;;;;;20.94;57.67;99429.22;333450;28;17674;-70
2023/07/13 00:36:54;;;;;;;0.30;0.22;;;;;;;20.92;57.74;99431.13;336619;28;4649;-70
2023/07/13 00:37:07;;;;;;;0.20;0.20;;;;;;;20.93;57.70;99432.84;336075;28;18510;-69
2023/07/13 00:37:19;;;;;;;0.20;0.20;;;;;;;20.92;58.04;99431.97;339620;28;4716;-70
2023/07/13 00:37:31;;;;;;;0.30;0.30;;;;;;;20.95;57.93;99430.91;337690;28;11097;-69
2023/07/13 00:37:43;;;;;;;0.40;0.38;;;;;;;20.93;57.92;99433.66;338692;28;4661;-69
2023/07/13 00:37:56;;;;;;;0.30;0.30;;;;;;;20.93;57.96;99431.03;339163;28;4842;-69
2023/07/13 00:38:08;;;;;;;0.30;0.28;;;;;;;20.93;57.71;99428.38;337002;28;17991;-69
2023/07/13 00:38:20;;;;;;;0.30;0.30;;;;;;;20.93;57.91;99427.56;338775;28;4635;-70
2023/07/13 00:38:32;;;;;;;0.40;0.40;;;;;;;20.91;57.81;99418.91;336953;28;12922;-70
2023/07/13 00:38:44;;;;;;;0.30;0.30;;;;;;;20.92;57.95;99425.84;340461;28;4663;-69
2023/07/13 00:38:56;;;;;;;0.32;0.30;;;;;;;20.92;57.74;99426.69;338914;28;4529;-70
2023/07/13 00:39:08;;;;;;;0.40;0.30;;;;;;;20.92;58.06;99431.13;335644;28;16530;-68
2023/07/13 00:39:21;;;;;;;0.45;0.30;;;;;;;20.91;58.28;99432.13;335850;28;4656;-68
2023/07/13 00:39:35;;;;;;;0.30;0.25;;;;;;;20.93;57.73;99427.56;336861;28;17888;-68
2023/07/13 00:39:47;;;;;;;0.40;0.20;;;;;;;20.92;57.99;99426.69;334739;28;18306;-69
2023/07/13 00:39:59;;;;;;;0.40;0.25;;;;;;;20.92;57.61;99425.84;335548;28;16746;-68
2023/07/13 00:40:13;;;;;;;0.22;0.22;;;;;;;20.91;57.76;99429.47;337003;28;4508;-68
2023/07/13 00:40:25;;;;;;;0.45;0.38;;;;;;;20.92;57.81;99428.50;334209;28;17892;-68
2023/07/13 00:40:37;;;;;;;0.57;0.40;;;;;;;20.91;57.96;99426.84;336046;28;11764;-68
2023/07/13 00:40:49;;;;;;;0.30;0.30;;;;;;;20.92;57.90;99425.84;336644;28;5107;-68
2023/07/13 00:41:03;;;;;;;0.30;0.30;;;;;;;20.91;57.43;99422.38;336355;28;5051;-68
2023/07/13 00:41:15;;;;;;;0.30;0.30;;;;;;;20.91;57.58;99429.47;334043;28;17983;-68
2023/07/13 00:41:27;;;;;;;0.25;0.25;;;;;;;20.88;57.71;99425.25;338371;28;4526;-68
2023/07/13 00:41:39;;;;;;;1.70;0.22;;;;;;;20.86;57.94;99426.34;333074;28;18025;-68
2023/07/13 00:41:52;;;;;;;1.60;0.20;;;;;;;20.85;57.71;99430.78;337473;28;5347;-68
2023/07/13 00:42:05;;;;;;;1.35;0.30;;;;;;;20.81;58.18;99433.81;336728;28;18092;-69
2023/07/13 00:42:17;;;;;;;0.40;0.40;;;;;;;20.80;57.76;99432.09;336622;28;5220;-68
2023/07/13 00:42:29;;;;;;;0.30;0.30;;;;;;;20.79;58.28;99431.28;335041;28;18159;-69
2023/07/13 00:42:42;;;;;;;0.20;0.20;;;;;;;20.76;58.19;99426.22;336482;28;14357;-69
2023/07/13 00:42:57;;;;;;;0.22;0.22;;;;;;;20.77;58.08;99432.38;333842;28;5392;-69
2023/07/13 00:43:36;;;;;;;0.65;0.40;;;;;;;20.75;58.65;99428.03;333588;28;15884;-69
2023/07/13 00:43:48;;;;;;;0.20;0.20;;;;;;;20.76;58.63;99426.22;335178;28;18426;-68
2023/07/13 00:44:02;;;;;;;0.35;0.30;;;;;;;20.75;58.60;99428.03;332091;28;16767;-68
2023/07/13 00:44:15;;;;;;;0.45;0.30;;;;;;;20.74;58.99;99428.16;336620;28;4563;-68
2023/07/13 00:44:28;;;;;;;0.35;0.30;;;;;;;20.75;59.15;99429.84;335131;28;18088;-68
2023/07/13 00:44:40;;;;;;;0.32;0.30;;;;;;;20.75;58.74;99430.69;334354;28;11974;-69
2023/07/13 00:45:27;;;;;;;0.38;0.35;;;;;;;20.77;58.59;99427.09;336875;28;5343;-68
2023/07/13 00:45:42;;;;;;;0.25;0.25;;;;;;;20.73;59.46;99427.31;333685;28;18313;-70
2023/07/13 00:46:18;;;;;;;0.30;0.30;;;;;;;20.77;59.08;99433.19;334525;28;17550;-69
2023/07/13 00:46:33;;;;;;;0.40;0.40;;;;;;;20.79;58.97;99430.44;335325;28;16623;-70
2023/07/13 00:46:45;;;;;;;0.40;0.32;;;;;;;20.78;58.90;99436.69;335160;28;17876;-70
2023/07/13 00:46:58;;;;;;;0.63;0.43;;;;;;;20.79;58.67;99430.44;332190;28;18206;-70
2023/07/13 00:47:10;;;;;;;0.50;0.40;;;;;;;20.77;59.71;99432.38;336976;28;4830;-70
2023/07/13 00:47:22;;;;;;;0.45;0.38;;;;;;;20.76;59.68;99426.22;335533;28;5029;-69
2023/07/13 00:47:34;;;;;;;0.25;0.25;;;;;;;20.80;58.95;99437.41;332989;28;4688;-69
2023/07/13 00:47:46;;;;;;;0.20;0.20;;;;;;;20.83;58.61;99431.88;337627;28;5305;-69
2023/07/13 00:47:58;;;;;;;0.20;0.20;;;;;;;20.82;58.78;99430.19;335033;28;5478;-69
2023/07/13 00:48:18;;;;;;;0.30;0.30;;;;;;;20.83;58.97;99437.16;337672;28;4586;-69
2023/07/13 00:48:33;;;;;;;0.70;0.32;;;;;;;20.82;58.98;99430.19;329715;28;18618;-69
2023/07/13 00:48:47;;;;;;;0.68;0.30;;;;;;;20.82;58.76;99431.03;334904;28;18037;-68
2023/07/13 00:49:04;;;;;;;0.22;0.22;;;;;;;20.84;58.73;99433.56;333994;28;18171;-68
2023/07/13 00:49:21;;;;;;;0.20;0.20;;;;;;;20.86;58.93;99426.34;330395;28;17704;-69
2023/07/13 00:49:36;;;;;;;0.30;0.20;;;;;;;20.87;58.60;99428.03;333785;28;17936;-68
2023/07/13 00:49:48;;;;;;;0.30;0.20;;;;;;;20.87;58.50;99433.31;333759;28;10758;-69
2023/07/13 00:50:02;;;;;;;0.38;0.30;;;;;;;20.88;58.46;99429.69;336076;28;4668;-69
2023/07/13 00:50:16;;;;;;;0.60;0.45;;;;;;;20.89;58.21;99432.22;333355;28;18133;-69
2023/07/13 00:50:28;;;;;;;0.60;0.40;;;;;;;20.87;58.14;99433.31;336383;28;5445;-68
2023/07/13 00:50:41;;;;;;;0.20;0.20;;;;;;;20.85;58.26;99433.44;334317;28;18276;-69
2023/07/13 00:50:57;;;;;;;0.30;0.28;;;;;;;20.85;58.08;99432.59;332194;28;4712;-68
2023/07/13 00:51:10;;;;;;;0.30;0.30;;;;;;;20.83;58.31;99430.06;334245;28;18878;-69
2023/07/13 00:51:28;;;;;;;0.20;0.20;;;;;;;20.83;58.14;99426.59;334227;28;18327;-68
2023/07/13 00:51:54;;;;;;;0.28;0.28;;;;;;;20.84;58.30;99430.91;333599;28;17760;-70
2023/07/13 00:52:09;;;;;;;0.30;0.30;;;;;;;20.81;58.24;99431.16;333328;28;17066;-69
2023/07/13 00:52:22;;;;;;;1.75;0.70;;;;;;;20.78;58.53;99428.75;330458;28;18287;-69
2023/07/13 00:52:37;;;;;;;1.70;0.70;;;;;;;20.77;58.64;99427.09;336430;28;4506;-68
2023/07/13 00:52:53;;;;;;;0.20;0.20;;;;;;;20.75;58.29;99430.69;333731;28;16901;-68
2023/07/13 00:53:06;;;;;;;0.20;0.20;;;;;;;20.73;58.53;99424.66;334376;28;17936;-69
2023/07/13 00:53:19;;;;;;;0.30;0.30;;;;;;;20.71;58.62;99429.22;336580;28;4565;-68
2023/07/13 00:53:33;;;;;;;0.28;0.28;;;;;;;20.72;58.50;99420.34;334379;28;17945;-68
2023/07/13 00:53:45;;;;;;;0.30;0.30;;;;;;;20.72;58.58;99430.91;338009;28;4989;-69
2023/07/13 00:54:03;;;;;;;0.35;0.35;;;;;;;20.72;58.69;99427.44;328754;28;18069;-69
2023/07/13 00:54:20;;;;;;;0.40;0.35;;;;;;;20.71;58.74;99433.69;334064;28;17969;-68
2023/07/13 00:54:43;;;;;;;0.30;0.30;;;;;;;20.68;58.53;99426.81;335262;28;18088;-69
2023/07/13 00:54:56;;;;;;;0.30;0.30;;;;;;;20.65;59.37;99429.72;334719;28;18706;-69
2023/07/13 00:55:09;;;;;;;0.32;0.30;;;;;;;20.65;59.38;99429.72;334345;28;14288;-69
2023/07/13 00:55:22;;;;;;;0.55;0.35;;;;;;;20.64;59.55;99425.38;336988;28;12765;-68
2023/07/13 00:55:35;;;;;;;0.30;0.30;;;;;;;20.68;59.08;99429.47;328316;28;17741;-69
2023/07/13 00:55:49;;;;;;;0.80;0.40;;;;;;;20.64;59.04;99428.03;334691;28;12424;-69
2023/07/13 00:56:02;;;;;;;0.80;0.40;;;;;;;20.64;59.28;99427.19;336235;28;4500;-68
2023/07/13 00:56:14;;;;;;;0.20;0.20;;;;;;;20.61;59.18;99436.19;330491;28;18572;-69
2023/07/13 00:56:28;;;;;;;0.60;0.28;;;;;;;20.59;58.97;99429.38;338087;28;4700;-69
2023/07/13 00:56:43;;;;;;;0.60;0.30;;;;;;;20.64;58.95;99428.03;333879;28;17922;-69
2023/07/13 00:56:58;;;;;;;0.30;0.30;;;;;;;20.59;58.73;99435.47;333484;28;17709;-70
2023/07/13 00:57:14;;;;;;;0.30;0.30;;;;;;;20.59;58.83;99424.09;335360;28;17890;-68
2023/07/13 00:57:26;;;;;;;0.20;0.20;;;;;;;20.60;58.83;99431.03;333612;28;18142;-69
2023/07/13 00:57:39;;;;;;;0.30;0.30;;;;;;;20.60;58.93;99431.84;335550;28;17681;-69
2023/07/13 00:57:51;;;;;;;0.30;0.30;;;;;;;20.60;58.83;99431.03;336727;28;4495;-68
2023/07/13 00:58:04;;;;;;;0.20;0.20;;;;;;;20.59;58.69;99432.84;334268;28;18968;-68
2023/07/13 00:58:17;;;;;;;0.20;0.20;;;;;;;20.59;58.80;99430.19;337685;28;6372;-68
2023/07/13 00:58:29;;;;;;;0.30;0.30;;;;;;;20.61;58.91;99427.44;332375;28;17746;-68
2023/07/13 00:58:42;;;;;;;0.28;0.28;;;;;;;20.61;59.09;99423.00;335457;28;17250;-68
2023/07/13 00:58:55;;;;;;;0.20;0.20;;;;;;;20.64;59.26;99425.38;334809;28;16489;-68
2023/07/13 00:59:10;;;;;;;0.30;0.30;;;;;;;20.65;59.42;99429.72;336406;28;5089;-68
2023/07/13 00:59:23;;;;;;;0.30;0.30;;;;;;;20.66;59.28;99428.75;337474;28;16076;-68
2023/07/13 00:59:39;;;;;;;0.32;0.30;;;;;;;20.67;59.37;99425.16;333725;28;18200;-69
2023/07/13 00:59:57;;;;;;;0.70;0.40;;;;;;;20.66;59.50;99425.25;333557;28;17858;-69
2023/07/13 01:00:11;;;;;;;0.47;0.40;;;;;;;20.65;59.53;99424.44;329661;28;17941;-69
2023/07/13 01:00:25;;;;;;;0.40;0.40;;;;;;;20.66;59.64;99426.09;337535;28;4464;-69
2023/07/13 01:00:38;;;;;;;0.38;0.38;;;;;;;20.65;59.71;99423.59;336231;28;17940;-68
2023/07/13 01:00:50;;;;;;;0.30;0.30;;;;;;;20.64;59.75;99428.03;334328;28;4713;-69
2023/07/13 01:01:02;;;;;;;0.30;0.30;;;;;;;20.65;59.96;99421.78;337318;28;5272;-68
2023/07/13 01:01:15;;;;;;;0.22;0.22;;;;;;;20.64;60.35;99422.72;333971;28;16353;-69
2023/07/13 01:01:27;;;;;;;0.32;0.32;;;;;;;20.60;60.59;99420.47;337808;28;4627;-69
2023/07/13 01:01:39;;;;;;;0.20;0.20;;;;;;;20.59;60.01;99432.84;337162;28;5642;-69
2023/07/13 01:01:51;;;;;;;0.20;0.20;;;;;;;20.58;59.99;99417.91;336894;28;17231;-69
2023/07/13 01:02:05;;;;;;;0.10;0.10;;;;;;;20.59;60.05;99424.09;335164;28;19223;-68
2023/07/13 01:02:17;;;;;;;0.20;0.20;;;;;;;20.57;60.62;99423.31;337463;28;5022;-68
2023/07/13 01:02:29;;;;;;;0.20;0.20;;;;;;;20.57;60.47;99421.53;335428;28;11555;-69
2023/07/13 01:02:46;;;;;;;0.20;0.20;;;;;;;20.57;60.51;99420.69;336143;28;5093;-68
2023/07/13 01:02:58;;;;;;;0.35;0.30;;;;;;;20.58;60.60;99417.91;335221;28;18004;-68
2023/07/13 01:03:11;;;;;;;0.40;0.40;;;;;;;20.60;60.62;99416.00;332936;28;4700;-69
2023/07/13 01:03:24;;;;;;;0.38;0.30;;;;;;;20.59;60.87;99419.63;336669;28;5242;-69
2023/07/13 01:03:38;;;;;;;0.30;0.30;;;;;;;20.61;60.66;99420.34;336049;28;18172;-69
2023/07/13 01:03:50;;;;;;;0.40;0.40;;;;;;;20.62;60.47;99418.53;336649;28;4663;-68
2023/07/13 01:04:03;;;;;;;0.40;0.40;;;;;;;20.61;60.57;99419.53;335304;28;19050;-68
2023/07/13 01:04:15;;;;;;;2.33;0.38;;;;;;;20.61;60.51;99415.06;336530;28;4619;-68
2023/07/13 01:04:27;;;;;;;3.15;0.50;;;;;;;20.60;60.44;99426.56;334613;28;17950;-68
2023/07/13 01:04:43;;;;;;;2.83;0.45;;;;;;;20.59;60.34;99419.63;332427;28;4507;-68
2023/07/13 01:04:56;;;;;;;0.30;0.30;;;;;;;20.58;60.29;99417.06;335360;28;17853;-68